Time;durP1;ratioP1;P1;durP2;ratioP2;P2;SDS_P1;SDS_P2;PMS_P1;PMS_P2;Temp;Humidity;BMP_temperature;BMP_pressure;BME280_temperature;BME280_humidity;BME280_pressure;Samples;Min_cycle;Max_cycle;Signal;HPM_P1;HPM_P2
2021/05/17 00:00:27;;;;;;;2.35;1.95;;;9.40;99.90;;;;;;3559573;40;20029;-67
2021/05/17 00:02:55;;;;;;;2.22;1.88;;;9.40;99.90;;;;;;3559903;40;20045;-67
2021/05/17 00:05:22;;;;;;;2.17;1.52;;;9.40;99.90;;;;;;3559431;40;20792;-67
2021/05/17 00:07:47;;;;;;;2.03;1.80;;;9.30;99.90;;;;;;3559727;40;20037;-67
2021/05/17 00:10:14;;;;;;;4.90;2.03;;;9.40;99.90;;;;;;3558052;40;20731;-67
2021/05/17 00:12:40;;;;;;;3.00;2.03;;;9.40;99.90;;;;;;3559766;40;20033;-67
2021/05/17 00:15:10;;;;;;;2.92;1.80;;;9.40;99.90;;;;;;3559967;40;20030;-67
2021/05/17 00:17:37;;;;;;;4.10;1.80;;;9.30;99.90;;;;;;3559009;40;20126;-67
2021/05/17 00:20:06;;;;;;;2.30;1.90;;;9.30;99.90;;;;;;3558418;40;20123;-67
2021/05/17 00:22:32;;;;;;;2.90;2.25;;;9.30;99.90;;;;;;3559469;40;20044;-66
2021/05/17 00:24:59;;;;;;;3.55;2.00;;;9.20;99.90;;;;;;3559613;40;20138;-67
2021/05/17 00:27:26;;;;;;;3.78;2.10;;;9.20;99.90;;;;;;3559459;40;20087;-67
2021/05/17 00:29:52;;;;;;;3.33;1.98;;;8.90;99.90;;;;;;3559383;40;20049;-67
2021/05/17 00:32:18;;;;;;;4.25;1.92;;;9.20;99.90;;;;;;3559711;40;20292;-67
2021/05/17 00:34:44;;;;;;;2.55;2.03;;;9.20;99.90;;;;;;3559221;40;20052;-67
2021/05/17 00:37:10;;;;;;;2.55;1.95;;;9.20;99.90;;;;;;3558314;40;20045;-67
2021/05/17 00:39:36;;;;;;;2.47;1.90;;;9.20;99.90;;;;;;3559198;40;20518;-67
2021/05/17 00:42:02;;;;;;;3.20;2.08;;;9.10;99.90;;;;;;3557933;40;20041;-67
2021/05/17 00:44:28;;;;;;;3.20;2.10;;;9.10;99.90;;;;;;3558874;40;20320;-67
2021/05/17 00:46:54;;;;;;;3.33;2.00;;;9.10;99.90;;;;;;3559292;40;20091;-67
2021/05/17 00:49:21;;;;;;;3.30;2.10;;;9.10;99.90;;;;;;3558050;40;20378;-66
2021/05/17 00:51:47;;;;;;;5.38;1.70;;;9.00;99.90;;;;;;3559154;40;20037;-67
2021/05/17 00:54:13;;;;;;;4.10;3.15;;;9.00;99.90;;;;;;3559332;40;20046;-67
2021/05/17 00:56:41;;;;;;;3.65;2.20;;;9.00;99.90;;;;;;3557792;40;20100;-67
2021/05/17 00:59:08;;;;;;;2.60;2.15;;;9.00;99.90;;;;;;3557831;40;20048;-67
2021/05/17 01:01:34;;;;;;;2.40;2.20;;;8.90;99.90;;;;;;3557688;40;20036;-67
2021/05/17 01:04:00;;;;;;;2.70;2.08;;;8.90;99.90;;;;;;3558992;40;20085;-67
2021/05/17 01:06:33;;;;;;;2.92;2.15;;;8.90;99.90;;;;;;3557544;40;20045;-67
2021/05/17 01:09:07;;;;;;;3.67;2.40;;;8.90;99.90;;;;;;3559027;40;20033;-67
2021/05/17 01:11:36;;;;;;;4.65;2.58;;;9.00;99.90;;;;;;3558674;40;20379;-67
2021/05/17 01:14:05;;;;;;;5.43;2.55;;;9.00;99.90;;;;;;3557752;40;20040;-67
2021/05/17 01:16:33;;;;;;;3.20;2.40;;;9.10;99.90;;;;;;3558144;40;20077;-67
2021/05/17 01:19:05;;;;;;;3.65;2.30;;;9.10;99.90;;;;;;3557397;40;20045;-67
2021/05/17 01:21:37;;;;;;;2.95;2.60;;;9.20;99.90;;;;;;3557443;40;20081;-67
2021/05/17 01:24:04;;;;;;;4.65;2.75;;;9.30;99.90;;;;;;3558380;40;20428;-67
2021/05/17 01:26:32;;;;;;;4.53;3.22;;;9.40;99.90;;;;;;3558709;40;20101;-67
2021/05/17 01:29:04;;;;;;;4.13;3.00;;;9.50;99.90;;;;;;3558751;40;20042;-67
2021/05/17 01:31:34;;;;;;;5.47;2.85;;;9.60;99.90;;;;;;3557903;40;20049;-67
2021/05/17 01:34:01;;;;;;;7.57;3.28;;;9.60;99.90;;;;;;3559804;40;20050;-67
2021/05/17 01:36:26;;;;;;;4.63;2.97;;;9.70;99.90;;;;;;3557276;40;20041;-59
2021/05/17 01:38:55;;;;;;;3.22;2.50;;;9.70;99.90;;;;;;3560173;40;20041;-59
2021/05/17 01:41:24;;;;;;;4.07;2.65;;;9.80;99.90;;;;;;3559727;40;20045;-59
2021/05/17 01:43:55;;;;;;;5.00;2.58;;;9.80;99.90;;;;;;3560074;40;20131;-59
2021/05/17 01:46:22;;;;;;;5.88;2.15;;;9.90;99.90;;;;;;3560078;40;20033;-59
2021/05/17 01:48:55;;;;;;;2.78;2.03;;;9.80;99.90;;;;;;3557178;40;20425;-67
2021/05/17 01:51:22;;;;;;;5.20;2.10;;;9.80;99.90;;;;;;3560362;40;20061;-67
2021/05/17 01:53:49;;;;;;;4.20;1.73;;;9.80;99.90;;;;;;3556072;40;20046;-66
2021/05/17 01:56:18;;;;;;;5.65;2.30;;;9.70;99.90;;;;;;3558968;40;20106;-67
2021/05/17 01:58:45;;;;;;;3.90;2.35;;;9.70;99.90;;;;;;3560322;40;20053;-66
2021/05/17 02:01:17;;;;;;;5.32;2.50;;;9.80;99.90;;;;;;3558743;40;20034;-66
2021/05/17 02:03:46;;;;;;;4.57;2.13;;;9.90;99.90;;;;;;3558548;40;20029;-67
2021/05/17 02:06:14;;;;;;;3.95;2.30;;;9.90;99.90;;;;;;3558270;40;20348;-67
2021/05/17 02:08:45;;;;;;;3.80;2.65;;;9.90;99.90;;;;;;3559555;40;20033;-67
2021/05/17 02:11:14;;;;;;;3.65;2.90;;;10.10;99.90;;;;;;3559550;40;20053;-67
2021/05/17 02:13:45;;;;;;;5.22;2.08;;;10.20;99.90;;;;;;3555655;40;20054;-67
2021/05/17 02:16:13;;;;;;;5.57;2.67;;;10.20;99.90;;;;;;3561196;40;20045;-67
2021/05/17 02:18:42;;;;;;;3.95;2.20;;;10.20;99.90;;;;;;3560226;40;20061;-67
2021/05/17 02:21:10;;;;;;;4.47;2.90;;;10.30;99.90;;;;;;3560960;40;20038;-67
2021/05/17 02:23:36;;;;;;;3.65;2.47;;;10.40;99.90;;;;;;3559458;40;20049;-67
2021/05/17 02:26:03;;;;;;;3.63;2.45;;;10.40;99.90;;;;;;3561314;40;20366;-67
2021/05/17 02:28:30;;;;;;;3.95;2.50;;;10.40;99.90;;;;;;3560402;40;20041;-67
2021/05/17 02:30:56;;;;;;;3.30;2.15;;;10.40;99.90;;;;;;3562696;40;20049;-66
2021/05/17 02:33:23;;;;;;;3.38;2.40;;;10.40;99.90;;;;;;3562340;40;20076;-67
2021/05/17 02:35:49;;;;;;;5.30;3.03;;;10.40;99.90;;;;;;3560885;40;20085;-67
2021/05/17 02:38:16;;;;;;;3.80;2.80;;;10.40;99.90;;;;;;3559934;40;20030;-68
2021/05/17 02:40:46;;;;;;;2.88;2.20;;;10.40;99.90;;;;;;3561003;40;20552;-67
2021/05/17 02:43:12;;;;;;;3.80;1.90;;;10.50;99.90;;;;;;3560521;40;20399;-67
2021/05/17 02:45:46;;;;;;;3.50;2.15;;;10.60;99.90;;;;;;3559463;40;20493;-66
2021/05/17 02:48:14;;;;;;;2.78;2.13;;;10.50;99.90;;;;;;3560635;40;20750;-66
2021/05/17 02:50:45;;;;;;;2.97;2.10;;;10.50;99.90;;;;;;3559415;40;20087;-66
2021/05/17 02:53:49;;;;;;;4.03;2.22;;;10.50;99.90;;;;;;3560350;40;20048;-67
2021/05/17 02:56:35;;;;;;;7.30;2.10;;;10.50;99.90;;;;;;3556603;40;20698;-67
2021/05/17 02:59:05;;;;;;;3.40;2.08;;;10.50;99.90;;;;;;3559561;40;20064;-67
2021/05/17 03:01:41;;;;;;;4.93;2.25;;;10.40;99.90;;;;;;3559492;40;20334;-67
2021/05/17 03:04:15;;;;;;;2.92;1.75;;;10.50;99.90;;;;;;3554664;40;20050;-67
2021/05/17 03:07:10;;;;;;;3.47;2.15;;;10.40;99.90;;;;;;3560831;40;20293;-67
2021/05/17 03:09:37;;;;;;;4.10;1.67;;;10.50;99.90;;;;;;3560037;40;20029;-66
2021/05/17 03:12:08;;;;;;;3.17;1.75;;;10.50;99.90;;;;;;3562277;40;20038;-66
2021/05/17 03:14:36;;;;;;;3.35;1.92;;;10.50;99.90;;;;;;3560739;40;20192;-66
2021/05/17 03:17:08;;;;;;;6.80;2.92;;;10.60;99.90;;;;;;3560678;40;20791;-67
2021/05/17 03:19:37;;;;;;;2.88;1.83;;;10.60;99.90;;;;;;3560778;40;20081;-67
2021/05/17 03:22:04;;;;;;;2.78;1.58;;;10.50;99.90;;;;;;3562342;40;20320;-67
2021/05/17 03:24:35;;;;;;;1.75;1.60;;;10.50;99.90;;;;;;3559458;40;20066;-67
2021/05/17 03:27:25;;;;;;;4.30;1.80;;;10.50;99.90;;;;;;3561780;40;20112;-66
2021/05/17 03:29:52;;;;;;;4.35;2.38;;;10.20;99.90;;;;;;3559026;40;20508;-67
2021/05/17 03:32:18;;;;;;;3.03;1.65;;;10.50;99.90;;;;;;3561134;40;20064;-67
2021/05/17 03:34:44;;;;;;;1.70;1.20;;;10.50;99.90;;;;;;3559255;40;20033;-67
2021/05/17 03:37:10;;;;;;;1.15;1.05;;;10.50;99.90;;;;;;3560062;40;20045;-67
2021/05/17 03:39:36;;;;;;;3.65;1.30;;;10.50;99.90;;;;;;3559823;40;20044;-66
2021/05/17 03:42:02;;;;;;;3.10;1.40;;;10.50;99.90;;;;;;3564082;40;20036;-67
2021/05/17 03:44:28;;;;;;;2.03;1.40;;;10.50;99.90;;;;;;3561980;40;20091;-59
2021/05/17 03:46:54;;;;;;;6.50;1.20;;;10.60;99.90;;;;;;3562060;40;20088;-59
2021/05/17 03:49:20;;;;;;;2.33;1.40;;;10.60;99.90;;;;;;3559886;40;20045;-59
2021/05/17 03:51:46;;;;;;;4.28;1.60;;;10.60;99.90;;;;;;3561990;40;20150;-59
2021/05/17 03:54:12;;;;;;;2.40;1.27;;;10.70;99.90;;;;;;3561882;40;20045;-59
2021/05/17 03:56:38;;;;;;;2.85;1.30;;;10.70;99.90;;;;;;3561355;40;20179;-59
2021/05/17 03:59:04;;;;;;;2.00;1.27;;;10.70;99.90;;;;;;3564822;40;20118;-59
2021/05/17 04:01:29;;;;;;;1.85;1.20;;;10.70;99.90;;;;;;3563014;40;20057;-59
2021/05/17 04:03:56;;;;;;;3.10;1.30;;;10.70;99.90;;;;;;3561750;40;20043;-59
2021/05/17 04:06:40;;;;;;;1.92;1.10;;;10.70;99.90;;;;;;3561100;40;20089;-59
2021/05/17 04:14:35;;;;;;;2.22;1.02;;;10.90;99.90;;;;;;3561797;40;20152;-59
2021/05/17 04:17:01;;;;;;;0.95;0.85;;;10.90;99.90;;;;;;3561434;40;20045;-59
2021/05/17 04:19:28;;;;;;;2.30;1.20;;;10.90;99.90;;;;;;3559255;40;20045;-59
2021/05/17 04:21:55;;;;;;;4.68;1.10;;;11.00;99.90;;;;;;3562170;40;20037;-59
2021/05/17 04:24:21;;;;;;;2.10;0.98;;;11.10;99.90;;;;;;3559189;40;20060;-59
2021/05/17 04:26:47;;;;;;;1.38;0.85;;;11.20;99.90;;;;;;3558550;40;20053;-59
2021/05/17 04:29:12;;;;;;;1.60;0.73;;;11.30;99.90;;;;;;3563003;40;20033;-59
2021/05/17 04:31:38;;;;;;;1.00;0.80;;;11.40;99.90;;;;;;3560841;40;20060;-59
2021/05/17 04:34:04;;;;;;;1.52;0.90;;;11.40;99.90;;;;;;3560745;40;20050;-59
2021/05/17 04:36:31;;;;;;;1.25;0.90;;;11.40;99.90;;;;;;3561802;40;20041;-59
2021/05/17 04:38:59;;;;;;;2.85;0.90;;;11.40;99.90;;;;;;3560012;40;20029;-59
2021/05/17 04:41:25;;;;;;;3.00;0.80;;;11.50;99.90;;;;;;3564221;40;20727;-59
2021/05/17 04:43:52;;;;;;;7.88;1.20;;;11.50;99.90;;;;;;3563213;40;20592;-59
2021/05/17 04:46:17;;;;;;;1.70;0.88;;;11.30;99.90;;;;;;3561357;40;20085;-59
2021/05/17 04:48:49;;;;;;;5.53;1.00;;;11.40;99.90;;;;;;3563650;40;20044;-59
2021/05/17 04:51:23;;;;;;;3.85;1.00;;;11.40;99.90;;;;;;3558543;40;20395;-59
2021/05/17 04:53:50;;;;;;;2.20;1.08;;;11.40;99.90;;;;;;3560682;40;20776;-59
2021/05/17 04:56:16;;;;;;;2.30;0.80;;;11.30;99.90;;;;;;3564009;40;20394;-59
2021/05/17 04:58:42;;;;;;;2.22;1.50;;;11.40;99.90;;;;;;3559841;40;20052;-59
2021/05/17 05:01:07;;;;;;;3.63;0.95;;;11.40;99.90;;;;;;3560459;40;20759;-59
2021/05/17 05:03:33;;;;;;;0.93;0.80;;;11.50;99.90;;;;;;3561316;40;20030;-59
2021/05/17 05:06:00;;;;;;;1.52;1.00;;;11.50;99.90;;;;;;3559653;40;20038;-59
2021/05/17 05:08:26;;;;;;;1.60;1.00;;;11.60;99.90;;;;;;3559390;40;20041;-59
2021/05/17 05:10:53;;;;;;;1.88;0.90;;;11.60;99.90;;;;;;3559797;40;20049;-59
2021/05/17 05:13:19;;;;;;;2.80;0.95;;;11.90;99.90;;;;;;3561754;40;20131;-59
2021/05/17 05:15:44;;;;;;;8.13;0.80;;;11.90;99.90;;;;;;3559853;40;20049;-59
2021/05/17 05:18:11;;;;;;;6.57;0.80;;;11.90;99.90;;;;;;3562295;40;20045;-60
2021/05/17 05:20:37;;;;;;;2.15;0.77;;;12.10;99.90;;;;;;3561277;40;20030;-59
2021/05/17 05:23:04;;;;;;;1.10;0.75;;;12.00;99.90;;;;;;3559567;40;20038;-59
2021/05/17 05:28:17;;;;;;;2.35;0.82;;;12.00;99.90;;;;;;3560292;40;20033;-59
2021/05/17 05:33:15;;;;;;;1.63;0.93;;;12.00;99.90;;;;;;3560539;40;20053;-59
2021/05/17 05:35:41;;;;;;;3.90;0.73;;;12.00;99.90;;;;;;3563238;40;20467;-59
2021/05/17 05:38:07;;;;;;;1.50;0.80;;;12.20;99.90;;;;;;3561717;40;20055;-59
2021/05/17 05:40:33;;;;;;;5.45;0.80;;;12.20;99.90;;;;;;3564551;40;20053;-59
2021/05/17 05:42:58;;;;;;;0.98;0.75;;;12.20;99.90;;;;;;3561280;40;20042;-59
2021/05/17 05:45:24;;;;;;;0.95;0.70;;;12.10;99.90;;;;;;3562105;40;20130;-59
2021/05/17 05:47:50;;;;;;;1.27;0.90;;;12.20;99.90;;;;;;3561228;40;20650;-59
2021/05/17 05:50:15;;;;;;;1.55;0.90;;;12.20;99.90;;;;;;3561950;40;20716;-59
2021/05/17 05:52:41;;;;;;;2.78;0.85;;;12.20;99.90;;;;;;3561668;40;20046;-59
2021/05/17 05:55:07;;;;;;;2.47;0.73;;;12.20;99.90;;;;;;3560037;40;20095;-59
2021/05/17 05:57:40;;;;;;;1.60;0.90;;;12.30;99.90;;;;;;3560842;40;20656;-59
2021/05/17 06:00:07;;;;;;;2.33;0.90;;;12.30;99.90;;;;;;3561388;40;20041;-59
2021/05/17 06:02:39;;;;;;;1.25;0.80;;;12.40;99.90;;;;;;3562217;40;20048;-59
2021/05/17 06:05:06;;;;;;;3.22;0.82;;;12.60;99.90;;;;;;3567201;40;20052;-59
2021/05/17 06:07:32;;;;;;;3.25;0.88;;;12.60;99.90;;;;;;3561837;40;20042;-59
2021/05/17 06:09:58;;;;;;;5.00;1.00;;;12.70;99.90;;;;;;3563075;40;20037;-59
2021/05/17 06:12:24;;;;;;;2.42;0.70;;;12.80;99.90;;;;;;3562745;40;20046;-59
2021/05/17 06:15:03;;;;;;;1.02;0.82;;;13.00;99.90;;;;;;3560409;40;20497;-59
2021/05/17 06:17:29;;;;;;;2.30;0.60;;;13.30;99.90;;;;;;3565781;40;20025;-59
2021/05/17 06:19:56;;;;;;;2.97;0.47;;;13.50;99.90;;;;;;3559982;40;20426;-59
2021/05/17 06:22:25;;;;;;;3.22;0.57;;;13.70;99.90;;;;;;3561929;40;20053;-59
2021/05/17 06:24:53;;;;;;;0.85;0.60;;;13.70;99.90;;;;;;3564154;40;20026;-59
2021/05/17 06:27:19;;;;;;;1.42;0.80;;;13.80;99.90;;;;;;3561968;40;20037;-59
2021/05/17 06:29:45;;;;;;;1.95;0.75;;;13.80;99.90;;;;;;3561336;40;20041;-59
2021/05/17 06:32:13;;;;;;;2.10;0.95;;;13.80;99.90;;;;;;3563435;40;20704;-59
2021/05/17 06:34:40;;;;;;;2.92;0.60;;;13.80;99.90;;;;;;3562843;40;20053;-60
2021/05/17 06:37:07;;;;;;;1.83;0.70;;;13.70;99.90;;;;;;3559685;40;20026;-67
2021/05/17 06:39:33;;;;;;;1.60;0.60;;;13.70;99.90;;;;;;3561693;40;20060;-66
2021/05/17 06:41:59;;;;;;;3.58;0.85;;;13.80;99.90;;;;;;3561030;40;20074;-67
2021/05/17 06:44:25;;;;;;;0.75;0.52;;;13.80;99.90;;;;;;3561237;40;20034;-67
2021/05/17 06:46:51;;;;;;;1.55;0.60;;;13.90;99.90;;;;;;3563332;40;20125;-67
2021/05/17 06:49:17;;;;;;;1.23;0.70;;;14.00;99.90;;;;;;3560095;40;20037;-68
2021/05/17 06:51:43;;;;;;;2.20;0.50;;;14.00;99.90;;;;;;3560398;40;20041;-68
2021/05/17 06:54:12;;;;;;;1.92;0.75;;;14.10;99.90;;;;;;3562048;40;20033;-68
2021/05/17 06:56:55;;;;;;;2.80;0.77;;;14.20;99.90;;;;;;3563685;40;20067;-68
2021/05/17 06:59:23;;;;;;;2.50;0.70;;;14.20;99.90;;;;;;3561148;40;20038;-68
2021/05/17 07:01:49;;;;;;;2.15;0.82;;;14.20;99.90;;;;;;3560700;40;20034;-68
2021/05/17 07:04:16;;;;;;;1.33;0.70;;;14.20;99.90;;;;;;3562656;40;20131;-68
2021/05/17 07:06:58;;;;;;;2.35;0.68;;;14.30;99.90;;;;;;3553269;40;20042;-68
2021/05/17 07:12:25;;;;;;;3.17;1.10;;;14.60;99.90;;;;;;3559708;40;20053;-68
2021/05/17 07:14:51;;;;;;;1.58;0.60;;;14.60;99.90;;;;;;3562035;40;20418;-68
2021/05/17 07:17:17;;;;;;;1.25;0.60;;;14.80;99.90;;;;;;3561872;40;20494;-67
2021/05/17 07:19:44;;;;;;;3.55;1.52;;;14.80;99.90;;;;;;3561374;40;20037;-67
2021/05/17 07:24:54;;;;;;;2.40;0.70;;;14.90;99.90;;;;;;3562419;40;20041;-67
2021/05/17 07:27:20;;;;;;;1.23;0.40;;;15.00;99.90;;;;;;3562091;40;20636;-67
2021/05/17 07:29:46;;;;;;;0.93;0.50;;;15.10;99.90;;;;;;3562850;40;20030;-67
2021/05/17 07:32:12;;;;;;;7.07;0.70;;;15.30;99.90;;;;;;3561935;40;20049;-68
2021/05/17 07:34:38;;;;;;;0.85;0.50;;;15.30;99.90;;;;;;3562566;40;20231;-68
2021/05/17 07:37:04;;;;;;;10.13;5.10;;;15.30;99.90;;;;;;3560581;40;20501;-68
2021/05/17 07:39:30;;;;;;;2.03;0.50;;;15.30;99.90;;;;;;3560564;40;20096;-67
2021/05/17 07:41:56;;;;;;;4.30;0.85;;;15.40;99.90;;;;;;3563105;40;20037;-67
2021/05/17 07:44:22;;;;;;;0.50;0.40;;;15.50;99.90;;;;;;3561744;40;20755;-67
2021/05/17 07:46:48;;;;;;;4.07;0.75;;;15.60;99.90;;;;;;3563691;40;20038;-67
2021/05/17 07:49:20;;;;;;;1.15;0.70;;;15.50;99.90;;;;;;3560866;40;20037;-67
2021/05/17 07:51:46;;;;;;;3.80;0.88;;;15.60;99.90;;;;;;3557200;40;20450;-67
2021/05/17 07:54:15;;;;;;;4.28;0.80;;;15.70;99.90;;;;;;3563348;40;20048;-68
2021/05/17 07:56:42;;;;;;;3.78;0.70;;;16.10;99.90;;;;;;3561163;40;20044;-67
2021/05/17 07:59:08;;;;;;;1.80;0.50;;;16.00;99.90;;;;;;3562175;40;20045;-68
2021/05/17 08:01:34;;;;;;;1.58;0.60;;;16.10;99.90;;;;;;3565311;40;20033;-68
2021/05/17 08:04:00;;;;;;;4.22;0.60;;;16.10;99.90;;;;;;3563666;40;20029;-67
2021/05/17 08:06:26;;;;;;;1.55;0.80;;;16.30;99.90;;;;;;3562501;40;20034;-68
2021/05/17 08:08:53;;;;;;;3.35;1.63;;;16.70;99.90;;;;;;3560027;40;20042;-69
2021/05/17 08:11:19;;;;;;;1.30;0.65;;;17.00;99.90;;;;;;3562413;40;20033;-67
2021/05/17 08:13:46;;;;;;;1.98;1.05;;;17.20;99.80;;;;;;3561227;40;20378;-67
2021/05/17 08:16:14;;;;;;;4.55;0.60;;;17.60;99.50;;;;;;3563084;40;20042;-66
2021/05/17 08:18:40;;;;;;;0.52;0.50;;;17.80;98.70;;;;;;3564639;40;20038;-67
2021/05/17 08:21:06;;;;;;;3.35;0.68;;;18.00;98.80;;;;;;3562652;40;20045;-67
2021/05/17 08:23:32;;;;;;;6.32;2.85;;;18.00;97.90;;;;;;3560630;40;20334;-67
2021/05/17 08:25:58;;;;;;;2.10;1.27;;;17.60;98.40;;;;;;3562417;40;20045;-67
2021/05/17 08:28:23;;;;;;;2.58;0.40;;;17.50;99.00;;;;;;3558898;40;20640;-67
2021/05/17 08:30:57;;;;;;;1.88;0.50;;;17.70;98.00;;;;;;3562987;40;20326;-67
2021/05/17 08:33:23;;;;;;;0.70;0.40;;;17.80;98.10;;;;;;3563822;40;20517;-67
2021/05/17 08:35:50;;;;;;;3.22;0.90;;;18.00;96.60;;;;;;3560418;40;20073;-67
2021/05/17 08:38:16;;;;;;;1.80;0.60;;;18.10;97.20;;;;;;3562455;40;20034;-67
2021/05/17 08:40:45;;;;;;;2.60;0.60;;;18.00;97.20;;;;;;3561966;40;20053;-67
2021/05/17 08:43:11;;;;;;;0.82;0.45;;;17.70;96.80;;;;;;3560642;40;20037;-67
2021/05/17 08:45:37;;;;;;;2.20;0.70;;;18.10;97.60;;;;;;3563377;40;20118;-67
2021/05/17 08:48:04;;;;;;;0.88;0.57;;;18.40;96.90;;;;;;3561513;40;20070;-67
2021/05/17 08:50:31;;;;;;;2.25;0.40;;;18.80;96.20;;;;;;3561638;40;20214;-67
2021/05/17 08:52:57;;;;;;;2.15;0.60;;;19.00;95.80;;;;;;3560799;40;20037;-67
2021/05/17 08:55:23;;;;;;;2.42;0.52;;;19.10;96.50;;;;;;3564433;40;20074;-67
2021/05/17 08:57:49;;;;;;;3.88;0.50;;;19.00;95.50;;;;;;3564164;40;20034;-67
2021/05/17 09:00:18;;;;;;;1.40;0.40;;;19.30;94.90;;;;;;3562751;40;20041;-67
2021/05/17 09:02:44;;;;;;;1.45;0.50;;;19.30;94.40;;;;;;3563636;40;20037;-66
2021/05/17 09:05:15;;;;;;;2.70;0.85;;;19.00;95.10;;;;;;3561807;40;20144;-67
2021/05/17 09:07:47;;;;;;;1.13;0.45;;;18.60;95.70;;;;;;3561585;40;20037;-67
2021/05/17 09:10:31;;;;;;;3.63;0.52;;;18.90;94.90;;;;;;3557047;40;20056;-67
2021/05/17 09:13:12;;;;;;;0.60;0.40;;;19.30;94.70;;;;;;3563245;40;20044;-67
2021/05/17 09:15:51;;;;;;;2.20;0.50;;;19.40;94.30;;;;;;3561737;40;20091;-67
2021/05/17 09:18:26;;;;;;;3.10;0.70;;;19.00;94.00;;;;;;3563994;40;20557;-67
2021/05/17 09:20:54;;;;;;;1.83;0.50;;;19.00;94.70;;;;;;3562076;40;20054;-67
2021/05/17 09:23:28;;;;;;;2.00;0.82;;;19.00;94.80;;;;;;3563174;40;20036;-66
2021/05/17 09:26:07;;;;;;;0.80;0.50;;;18.80;95.60;;;;;;3563612;40;20048;-67
2021/05/17 09:28:52;;;;;;;2.35;0.60;;;18.50;96.80;;;;;;3566382;40;20087;-67
2021/05/17 09:31:19;;;;;;;1.33;0.50;;;18.20;96.40;;;;;;3561593;40;20034;-67
2021/05/17 09:33:51;;;;;;;1.55;0.52;;;17.70;97.20;;;;;;3563337;40;20053;-67
2021/05/17 09:36:30;;;;;;;2.30;0.50;;;17.60;97.60;;;;;;3561091;40;20048;-67
2021/05/17 09:38:56;;;;;;;2.70;0.38;;;17.80;97.70;;;;;;3563149;40;20042;-67
2021/05/17 09:41:22;;;;;;;2.88;1.08;;;18.50;94.00;;;;;;3561683;40;20052;-67
2021/05/17 09:43:49;;;;;;;1.38;0.60;;;19.00;96.10;;;;;;3564092;40;20403;-67
2021/05/17 09:46:15;;;;;;;4.22;0.60;;;19.60;94.60;;;;;;3563671;40;20510;-67
2021/05/17 09:48:46;;;;;;;3.28;0.57;;;19.70;93.20;;;;;;3563526;40;20033;-67
2021/05/17 09:51:13;;;;;;;2.47;0.60;;;19.40;94.10;;;;;;3564779;40;20034;-67
2021/05/17 09:53:45;;;;;;;3.38;0.68;;;19.10;92.60;;;;;;3560312;40;20036;-67
2021/05/17 09:56:23;;;;;;;2.58;0.75;;;18.90;94.20;;;;;;3562858;40;20115;-67
2021/05/17 09:58:57;;;;;;;1.65;0.57;;;19.00;93.20;;;;;;3562164;40;20030;-67
2021/05/17 10:01:27;;;;;;;1.35;0.65;;;18.90;93.70;;;;;;3560404;40;20718;-67
2021/05/17 10:03:54;;;;;;;2.42;1.13;;;19.50;92.90;;;;;;3559745;40;20500;-67
2021/05/17 10:06:24;;;;;;;2.97;1.27;;;20.40;90.20;;;;;;3559315;40;20413;-67
2021/05/17 10:08:52;;;;;;;1.77;0.82;;;20.90;88.60;;;;;;3560101;40;20131;-66
2021/05/17 10:11:18;;;;;;;1.85;0.60;;;21.30;86.50;;;;;;3561272;40;20048;-66
2021/05/17 10:13:45;;;;;;;0.82;0.60;;;21.00;82.90;;;;;;3561887;40;20743;-67
2021/05/17 10:16:13;;;;;;;1.15;0.50;;;20.50;85.20;;;;;;3559960;40;20038;-67
2021/05/17 10:18:40;;;;;;;1.77;0.50;;;20.10;87.20;;;;;;3560489;40;20034;-67
2021/05/17 10:21:09;;;;;;;1.75;0.63;;;19.50;87.30;;;;;;3563757;40;20044;-67
2021/05/17 10:23:38;;;;;;;1.13;0.40;;;19.50;85.10;;;;;;3563853;40;20123;-67
2021/05/17 10:26:08;;;;;;;0.85;0.35;;;19.30;86.90;;;;;;3563067;40;20067;-67
2021/05/17 10:28:36;;;;;;;2.35;0.60;;;19.30;88.30;;;;;;3563168;40;20036;-67
2021/05/17 10:31:17;;;;;;;4.05;1.90;;;19.30;88.60;;;;;;3562160;40;20030;-66
2021/05/17 10:33:54;;;;;;;1.70;0.70;;;19.20;90.50;;;;;;3561440;40;20045;-67
2021/05/17 10:36:20;;;;;;;4.78;0.50;;;19.00;90.20;;;;;;3565304;40;20052;-67
2021/05/17 10:38:49;;;;;;;0.60;0.52;;;18.90;89.70;;;;;;3562453;40;20240;-67
2021/05/17 10:44:02;;;;;;;1.10;0.40;;;18.50;91.00;;;;;;3561031;40;20038;-68
2021/05/17 10:46:36;;;;;;;1.38;0.50;;;18.50;91.40;;;;;;3561250;40;20045;-68
2021/05/17 10:49:27;;;;;;;3.40;1.02;;;18.60;90.60;;;;;;3560175;40;20054;-68
2021/05/17 10:51:57;;;;;;;3.33;0.60;;;19.20;89.50;;;;;;3562989;40;20040;-68
2021/05/17 10:54:25;;;;;;;1.73;0.57;;;19.90;89.60;;;;;;3563586;40;20065;-68
2021/05/17 11:02:17;;;;;;;1.90;0.50;;;20.60;79.20;;;;;;3561581;40;20804;-68
2021/05/17 11:04:49;;;;;;;2.58;0.40;;;20.80;80.80;;;;;;3559660;40;20718;-67
2021/05/17 11:07:25;;;;;;;3.22;0.75;;;21.10;74.60;;;;;;3562428;40;20052;-67
2021/05/17 11:09:56;;;;;;;2.00;0.50;;;21.70;75.30;;;;;;3562888;40;20041;-67
2021/05/17 11:12:24;;;;;;;2.47;0.60;;;22.20;71.70;;;;;;3562124;40;20052;-67
2021/05/17 11:15:18;;;;;;;0.38;0.32;;;22.70;70.00;;;;;;3561415;40;20097;-61
2021/05/17 11:18:00;;;;;;;0.70;0.45;;;23.10;68.30;;;;;;3561855;40;20085;-66
2021/05/17 11:20:44;;;;;;;2.47;0.40;;;23.30;65.90;;;;;;3560857;40;20038;-68
2021/05/17 11:23:11;;;;;;;1.17;0.53;;;23.90;63.60;;;;;;3560824;40;20123;-67
2021/05/17 11:26:10;;;;;;;2.25;0.65;;;24.00;60.40;;;;;;3560548;40;20041;-67
2021/05/17 11:28:39;;;;;;;1.25;0.68;;;24.00;61.50;;;;;;3560142;40;20874;-67
2021/05/17 11:31:19;;;;;;;1.05;0.70;;;23.10;65.50;;;;;;3563182;40;20081;-68
2021/05/17 11:33:52;;;;;;;3.45;0.50;;;;;;;;;;3559202;40;20045;-68
2021/05/17 11:36:22;;;;;;;24.30;4.55;;;;;;;;;;3563368;40;20046;-68
2021/05/17 11:39:07;;;;;;;59.13;7.13;;;;;;;;;;3560672;40;20069;-69
2021/05/17 11:41:45;;;;;;;1.35;0.60;;;24.40;64.30;;;;;;3561224;40;20610;-71
2021/05/17 11:44:17;;;;;;;2.10;0.75;;;;;;;;;;3560910;40;20061;-69
2021/05/17 11:46:47;;;;;;;1.08;0.47;;;;;;;;;;3561319;40;20033;-68
2021/05/17 11:49:17;;;;;;;2.22;0.50;;;;;;;;;;3563181;40;20041;-68
2021/05/17 11:51:46;;;;;;;38.70;17.38;;;;;;;;;;3561735;40;20033;-67
2021/05/17 11:54:12;;;;;;;2.17;1.23;;;;;;;;;;3561895;40;20045;-67
2021/05/17 11:56:46;;;;;;;7.60;2.90;;;;;;;;;;3558816;40;20407;-67
2021/05/17 11:59:17;;;;;;;5.45;2.33;;;;;;;;;;3562476;40;20055;-67
2021/05/17 12:01:53;;;;;;;6.03;2.40;;;;;;;;;;3561976;40;20034;-67
2021/05/17 12:04:23;;;;;;;7.50;2.53;;;;;;;;;;3560035;40;20034;-67
2021/05/17 12:06:50;;;;;;;8.23;2.60;;;;;;;;;;3559719;40;20038;-67
2021/05/17 12:09:29;;;;;;;14.18;3.63;;;;;;;;;;3560515;40;20077;-68
2021/05/17 12:11:55;;;;;;;22.45;5.32;;;;;;;;;;3560021;40;20048;-67
2021/05/17 12:14:21;;;;;;;5.85;1.45;;;25.70;54.80;;;;;;3558678;40;20081;-67
2021/05/17 12:16:58;;;;;;;5.55;2.00;;;;;;;;;;3559495;40;20049;-67
2021/05/17 12:19:25;;;;;;;8.45;3.00;;;;;;;;;;3560125;40;20403;-67
2021/05/17 12:21:55;;;;;;;11.68;3.70;;;;;;;;;;3559405;40;20731;-67
2021/05/17 12:24:28;;;;;;;8.57;3.08;;;;;;;;;;3562195;40;20064;-68
2021/05/17 12:26:57;;;;;;;6.15;2.75;;;;;;;;;;3565698;40;20727;-68
2021/05/17 12:29:23;;;;;;;8.88;3.00;;;;;;;;;;3562122;40;20052;-67
2021/05/17 12:31:49;;;;;;;11.35;3.53;;;;;;;;;;3560770;40;20033;-68
2021/05/17 12:34:16;;;;;;;8.57;2.70;;;;;;;;;;3563828;40;20270;-68
2021/05/17 12:36:42;;;;;;;10.27;3.22;;;;;;;;;;3560987;40;20036;-67
2021/05/17 12:39:16;;;;;;;7.55;2.78;;;;;;;;;;3559775;40;20720;-68
2021/05/17 12:41:42;;;;;;;10.02;3.70;;;;;;;;;;3560208;40;20037;-68
2021/05/17 12:44:27;;;;;;;11.35;3.80;;;;;;;;;;3562165;40;20078;-67
2021/05/17 12:47:00;;;;;;;8.15;2.17;;;;;;;;;;3560883;40;20105;-68
2021/05/17 12:49:42;;;;;;;4.80;1.63;;;;;;;;;;3558961;40;20125;-68
2021/05/17 12:52:08;;;;;;;4.63;1.58;;;;;;;;;;3561995;40;20038;-68
2021/05/17 12:54:34;;;;;;;2.05;1.10;;;;;;;;;;3560381;40;20086;-68
2021/05/17 12:57:11;;;;;;;1.48;0.93;;;;;;;;;;3561256;40;20622;-68
2021/05/17 12:59:46;;;;;;;6.32;1.95;;;;;;;;;;3561761;40;20048;-68
2021/05/17 13:02:13;;;;;;;4.90;2.08;;;;;;;;;;3562388;40;20037;-68
2021/05/17 13:04:39;;;;;;;2.15;0.95;;;;;;;;;;3560051;40;20040;-68
2021/05/17 13:07:06;;;;;;;3.45;1.65;;;;;;;;;;3561209;40;20391;-68
2021/05/17 13:09:33;;;;;;;4.25;1.92;;;;;;;;;;3560510;40;20055;-68
2021/05/17 13:11:59;;;;;;;5.00;2.38;;;;;;;;;;3559784;40;20528;-68
2021/05/17 13:14:26;;;;;;;2.47;1.40;;;;;;;;;;3560320;40;20125;-68
2021/05/17 13:16:53;;;;;;;8.27;3.10;;;;;;;;;;3559506;40;20404;-68
2021/05/17 13:32:25;;;;;;;36.88;6.00;;;;;;;;;;3559368;40;20064;-68
2021/05/17 13:34:51;;;;;;;36.83;5.88;;;;;;;;;;3561903;40;20033;-68
2021/05/17 13:37:17;;;;;;;28.55;5.75;;;;;;;;;;3561246;40;20076;-68
2021/05/17 13:39:43;;;;;;;2.60;0.82;;;;;;;;;;3551110;40;20021;-68
2021/05/17 13:42:09;;;;;;;202.50;127.88;;;;;;;;;;3559553;40;20041;-68
2021/05/17 13:44:35;;;;;;;198.20;109.90;;;;;;;;;;3558933;40;20778;-67
2021/05/17 13:47:01;;;;;;;66.70;6.88;;;;;;;;;;3561272;40;20080;-68
2021/05/17 13:49:32;;;;;;;84.45;29.63;;;;;;;;;;3560517;40;20040;-67